Flight Track Log - Related Links

Times and Time Zones

All times are in EDT time to prevent confusion due to time zone crossing. See the UCA4774 flight status page for this flight to view local times or setup timezone preferences in your user account.

Time Position Orientation Groundspeed Altitude Reporting Facility
EDT Latitude Longitude Course Direction KTS MPH feet Rate Location/Type
Wed 08:33:00 AM 41.7067 -82.2056 319° Northwest  Level Estimated
Wed 08:34:00 AM 41.7490 -82.2560 318° Northwest  Level Estimated
Wed 08:35:00 AM 41.7914 -82.3065 318° Northwest  Level Estimated
Wed 08:36:00 AM 41.8337 -82.3570 318° Northwest  Level Estimated
Wed 08:37:00 AM 41.8760 -82.4076 318° Northwest  Level Estimated
Wed 08:38:00 AM 41.9183 -82.4582 318° Northwest  Level Estimated
Wed 08:39:00 AM 41.9606 -82.5090 318° Northwest  Level Estimated
Wed 08:40:00 AM 42.0028 -82.5598 318° Northwest  Level Estimated
Wed 08:41:00 AM 42.0450 -82.6106 318° Northwest  Level Estimated
Wed 08:42:00 AM 42.0872 -82.6616 318° Northwest  Level Estimated
Wed 08:43:00 AM 42.1294 -82.7126 318° Northwest  Level Estimated
Wed 08:44:00 AM 42.1716 -82.7636 318° Northwest  Level Estimated
Wed 08:45:00 AM 42.2137 -82.8148 318° Northwest  Level Estimated
Wed 08:46:00 AM 42.2558 -82.8660 318° Northwest  Level Estimated
Wed 08:47:00 AM 42.2979 -82.9172 318° Northwest  Level Estimated
Wed 08:48:00 AM 42.3399 -82.9686 318° Northwest  Level Estimated
Wed 08:49:00 AM 42.3820 -83.0200 318° Northwest  Level Estimated
Wed 08:50:00 AM 42.4240 -83.0715 318° Northwest  Level Estimated
Wed 08:51:00 AM 42.4660 -83.1230 318° Northwest  Level Estimated
Wed 08:52:00 AM 42.5080 -83.1746 318° Northwest  Level Estimated
Wed 08:53:00 AM 42.5499 -83.2263 318° Northwest  Level Estimated
Wed 08:54:00 AM 42.5918 -83.2781 318° Northwest  Level Estimated
Wed 08:55:00 AM 42.6337 -83.3299 318° Northwest  Level Estimated
Wed 08:56:00 AM 42.6756 -83.3818 318° Northwest  Level Estimated
Wed 08:57:00 AM 42.7174 -83.4337 318° Northwest  Level Estimated
Wed 08:58:00 AM 42.7593 -83.4858 318° Northwest  Level Estimated
Wed 08:59:00 AM 42.8011 -83.5379 318° Northwest  Level Estimated
Wed 09:00:00 AM 42.8429 -83.5901 318° Northwest  Level Estimated
Wed 09:01:00 AM 42.8846 -83.6423 317° Northwest  Level Estimated
Wed 09:02:00 AM 42.9264 -83.6946 317° Northwest  Level Estimated
Wed 09:03:00 AM 42.9654 -83.7437 317° Northwest  Level Estimated
Wed 09:04:00 AM 42.9654 -83.7437 North  Level Estimated
Wed 09:05:00 AM 42.9654 -83.7437 North  Level Estimated
Wed 09:06:00 AM 42.9654 -83.7437 North  Level Estimated
Wed 09:07:00 AM 42.9654 -83.7437 North  Level Estimated
Wed 09:08:00 AM 42.9654 -83.7437 North  Level Estimated
Wed 09:09:00 AM 42.9654 -83.7437 North  Level Estimated
Wed 09:10:00 AM 42.9654 -83.7437 North  Level Estimated
Wed 09:11:00 AM 42.9654 -83.7437 North  Level Estimated
Wed 09:12:00 AM 42.9654 -83.7437 North  Level Estimated
Wed 09:13:00 AM 42.9654 -83.7437 North  Level Estimated
Wed 09:14:00 AM 42.9654 -83.7437 North  Level Estimated
Wed 09:15:00 AM 42.9654 -83.7437 North  Level Estimated
Wed 09:16:00 AM 42.9654 -83.7437 North  Level Estimated
Wed 09:17:00 AM 42.9654 -83.7437 North  Level Estimated
Wed 09:18:00 AM 42.9654 -83.7437 North  Level Estimated
Wed 09:19:00 AM 42.9654 -83.7437 North  Level Estimated

Login

Don't have an account? Register now (free) for customized features, flight alerts, and more!